createdAt,value
2022-10-03T00:03:37.612Z,980.40
2022-10-03T00:09:37.669Z,980.35
2022-10-03T00:15:37.679Z,980.55
2022-10-03T00:21:37.948Z,980.46
2022-10-03T00:27:37.711Z,980.31
2022-10-03T00:33:37.675Z,980.53
2022-10-03T00:39:37.687Z,980.52
2022-10-03T00:49:15.403Z,980.45
2022-10-03T00:55:35.607Z,980.44
2022-10-03T01:01:35.734Z,980.45
2022-10-03T01:07:35.753Z,980.37
2022-10-03T01:13:35.770Z,980.40
2022-10-03T01:19:35.834Z,980.40
2022-10-03T01:25:35.755Z,980.17
2022-10-03T01:31:35.861Z,980.38
2022-10-03T01:37:35.813Z,980.33
2022-10-03T01:43:35.851Z,980.55
2022-10-03T01:49:35.832Z,980.42
2022-10-03T01:55:35.812Z,980.48
2022-10-03T02:01:36.037Z,980.51
2022-10-03T02:07:35.848Z,980.50
2022-10-03T02:13:35.835Z,980.39
2022-10-03T02:22:16.739Z,980.73
2022-10-03T02:28:36.904Z,980.78
2022-10-03T02:34:36.915Z,980.99
2022-10-03T02:40:36.912Z,981.06
2022-10-03T02:46:36.979Z,981.11
2022-10-03T02:52:36.995Z,981.18
2022-10-03T02:58:37.012Z,981.20
2022-10-03T03:04:37.016Z,981.23
2022-10-03T03:10:37.039Z,981.18
2022-10-03T03:16:37.064Z,981.17
2022-10-03T03:22:37.005Z,981.14
2022-10-03T03:28:37.027Z,981.25
2022-10-03T03:34:37.012Z,981.39
2022-10-03T03:40:37.003Z,981.38
2022-10-03T03:46:37.008Z,981.33
2022-10-03T03:52:37.012Z,981.36
2022-10-03T03:58:37.021Z,981.33
2022-10-03T04:04:37.018Z,981.40
2022-10-03T04:10:37.046Z,981.31
2022-10-03T04:16:37.068Z,981.27
2022-10-03T04:22:37.020Z,981.33
2022-10-03T04:28:37.004Z,981.41
2022-10-03T04:34:36.997Z,981.41
2022-10-03T04:40:36.992Z,981.39
2022-10-03T04:46:36.986Z,981.44
2022-10-03T04:52:37.007Z,981.35
2022-10-03T04:58:37.006Z,981.35
2022-10-03T05:04:37.024Z,981.39
2022-10-03T05:10:37.057Z,981.50
2022-10-03T05:16:37.068Z,981.59
2022-10-03T05:22:37.010Z,981.61
2022-10-03T05:28:37.035Z,981.63
2022-10-03T05:34:37.029Z,981.73
2022-10-03T05:40:37.026Z,981.77
2022-10-03T05:46:37.026Z,981.93
2022-10-03T05:52:37.033Z,982.07
2022-10-03T05:58:46.968Z,982.05
2022-10-03T06:04:47.052Z,982.12
2022-10-03T06:10:47.052Z,982.14
2022-10-03T06:16:47.045Z,982.17
2022-10-03T06:22:47.063Z,982.18
2022-10-03T06:28:47.000Z,982.19
2022-10-03T06:34:47.017Z,982.30
2022-10-03T06:40:47.002Z,982.29
2022-10-03T06:46:46.996Z,982.31
2022-10-03T06:52:47.015Z,982.21
2022-10-03T06:58:47.046Z,982.24
2022-10-03T07:04:47.267Z,982.31
2022-10-03T07:10:47.024Z,982.32
2022-10-03T07:16:47.094Z,982.39
2022-10-03T07:22:47.039Z,982.40
2022-10-03T07:28:47.056Z,982.43
2022-10-03T07:34:47.024Z,982.39
2022-10-03T07:40:47.029Z,982.40
2022-10-03T07:46:47.061Z,982.31
2022-10-03T07:52:47.048Z,982.42
2022-10-03T08:10:47.023Z,982.64
2022-10-03T08:16:47.025Z,982.78
2022-10-03T08:22:47.012Z,982.66
2022-10-03T08:28:47.056Z,982.66
2022-10-03T08:34:47.058Z,982.67
2022-10-03T08:40:47.072Z,982.77
2022-10-03T08:46:47.045Z,982.67
2022-10-03T08:52:47.560Z,982.78
2022-10-03T08:58:47.463Z,982.70
2022-10-03T09:04:47.333Z,982.61
2022-10-03T09:10:47.298Z,982.69
2022-10-03T09:16:47.350Z,982.71
2022-10-03T09:22:47.535Z,982.85
2022-10-03T09:28:47.445Z,982.86
2022-10-03T09:34:47.400Z,982.86
2022-10-03T09:40:52.630Z,982.82
2022-10-03T09:46:47.415Z,982.90
2022-10-03T09:52:47.316Z,982.91
2022-10-03T10:02:17.053Z,982.96
2022-10-03T10:08:36.992Z,982.94
2022-10-03T10:14:37.035Z,982.84
2022-10-03T10:20:37.060Z,982.90
2022-10-03T10:26:37.089Z,982.86
2022-10-03T10:32:37.136Z,982.80
2022-10-03T10:38:37.066Z,982.73
2022-10-03T10:44:37.166Z,982.73
2022-10-03T10:50:37.159Z,982.87
2022-10-03T10:56:37.370Z,982.77
2022-10-03T11:02:37.173Z,982.82
2022-10-03T11:08:37.138Z,982.92
2022-10-03T11:14:37.138Z,982.83
2022-10-03T11:20:37.164Z,983.00
2022-10-03T11:26:37.442Z,982.90
2022-10-03T11:32:37.197Z,982.78
2022-10-03T11:38:37.201Z,982.87
2022-10-03T11:44:37.202Z,982.96
2022-10-03T11:50:37.184Z,982.92
2022-10-03T11:56:37.310Z,982.76
2022-10-03T12:02:37.360Z,982.75
2022-10-03T12:08:37.188Z,982.66
2022-10-03T12:14:37.200Z,982.68
2022-10-03T12:20:37.223Z,982.47
2022-10-03T12:26:37.176Z,982.44
2022-10-03T12:32:37.194Z,982.60
2022-10-03T12:38:37.232Z,982.51
2022-10-03T12:44:37.218Z,982.62
2022-10-03T12:50:37.222Z,982.43
2022-10-03T12:56:37.204Z,982.46
2022-10-03T13:02:37.253Z,982.50
2022-10-03T13:08:37.223Z,982.41
2022-10-03T13:14:37.199Z,982.50
2022-10-03T13:20:37.232Z,982.64
2022-10-03T13:26:37.220Z,982.52
2022-10-03T13:32:37.186Z,982.63
2022-10-03T13:38:37.193Z,982.57
2022-10-03T13:44:37.242Z,982.63
2022-10-03T13:50:37.253Z,982.66
2022-10-03T13:56:37.219Z,982.63
2022-10-03T14:02:37.327Z,982.71
2022-10-03T14:08:37.293Z,982.78
2022-10-03T14:14:37.230Z,982.85
2022-10-03T14:20:37.237Z,982.76
2022-10-03T14:26:37.257Z,982.82
2022-10-03T14:32:46.806Z,982.73
2022-10-03T14:38:37.314Z,982.86
2022-10-03T14:44:37.288Z,982.79
2022-10-03T14:50:37.295Z,982.86
2022-10-03T14:56:37.339Z,982.95
2022-10-03T15:02:37.337Z,982.93
2022-10-03T15:08:37.379Z,982.97
2022-10-03T15:14:37.298Z,982.82
2022-10-03T15:20:37.319Z,982.82
2022-10-03T15:26:37.351Z,982.85
2022-10-03T15:32:37.340Z,982.76
2022-10-03T15:38:37.768Z,982.82
2022-10-03T15:44:37.749Z,982.94
2022-10-03T15:50:37.377Z,982.94
2022-10-03T15:56:37.365Z,982.94
2022-10-03T16:02:37.449Z,983.09
2022-10-03T16:08:37.859Z,982.99
2022-10-03T16:14:37.326Z,982.99
2022-10-03T16:20:37.344Z,983.08
2022-10-03T16:26:37.363Z,983.17
2022-10-03T16:32:37.371Z,983.28
2022-10-03T16:38:37.366Z,983.26
2022-10-03T16:44:37.351Z,983.15
2022-10-03T16:50:39.020Z,983.19
2022-10-03T16:56:37.388Z,983.29
2022-10-03T17:02:37.461Z,983.56
2022-10-03T17:08:42.031Z,983.69
2022-10-03T17:14:37.374Z,983.89
2022-10-03T17:20:37.375Z,984.03
2022-10-03T17:26:37.399Z,984.00
2022-10-03T17:32:37.387Z,983.99
2022-10-03T17:38:49.505Z,984.01
2022-10-03T17:44:37.370Z,984.10
2022-10-03T17:50:37.396Z,984.11
2022-10-03T17:56:37.378Z,984.02
2022-10-03T18:02:37.465Z,983.92
2022-10-03T18:08:37.668Z,983.80
2022-10-03T18:16:48.167Z,983.85
2022-10-03T18:22:48.208Z,983.76
2022-10-03T18:28:48.206Z,983.80
2022-10-03T18:34:48.194Z,983.84
2022-10-03T18:41:44.430Z,983.83
2022-10-03T18:47:44.448Z,983.89
2022-10-03T19:05:44.466Z,983.97
2022-10-03T19:11:44.745Z,984.03
2022-10-03T19:17:44.699Z,984.13
2022-10-03T19:23:44.711Z,984.15
2022-10-03T19:29:44.705Z,984.05
2022-10-03T19:35:44.713Z,984.03
2022-10-03T19:41:44.971Z,983.99
2022-10-03T19:47:44.961Z,984.00
2022-10-03T19:53:44.973Z,984.15
2022-10-03T19:59:44.959Z,984.21
2022-10-03T20:05:44.959Z,984.34
2022-10-03T20:11:45.194Z,984.27
2022-10-03T20:17:45.206Z,984.28
2022-10-03T20:23:45.167Z,984.45
2022-10-03T20:29:45.228Z,984.46
2022-10-03T20:35:45.221Z,984.44
2022-10-03T20:41:45.214Z,984.44
2022-10-03T20:47:45.212Z,984.31
2022-10-03T20:53:45.214Z,984.38
2022-10-03T20:59:45.258Z,984.35
2022-10-03T21:05:45.210Z,984.38
2022-10-03T21:11:45.220Z,984.22
2022-10-03T21:17:45.207Z,984.21
2022-10-03T21:23:45.180Z,984.14
2022-10-03T21:29:45.211Z,984.15
2022-10-03T21:35:45.198Z,984.13
2022-10-03T21:41:45.222Z,984.24
2022-10-03T21:47:45.203Z,984.23
2022-10-03T21:55:39.480Z,984.20
2022-10-03T22:01:45.306Z,984.23
2022-10-03T22:07:45.254Z,984.12
2022-10-03T22:13:45.231Z,984.10
2022-10-03T22:19:45.231Z,984.04
2022-10-03T22:25:45.256Z,984.13
2022-10-03T22:31:49.610Z,984.09
2022-10-03T22:37:49.673Z,984.25
2022-10-03T22:43:49.663Z,984.16
2022-10-03T22:49:49.656Z,984.15
2022-10-03T22:55:49.659Z,984.15
2022-10-03T23:01:49.927Z,984.10
2022-10-03T23:07:49.895Z,984.04
2022-10-03T23:13:49.870Z,984.15
2022-10-03T23:19:49.902Z,984.16
2022-10-03T23:25:49.878Z,984.18
2022-10-03T23:31:59.983Z,984.17
2022-10-03T23:37:59.954Z,984.13
2022-10-03T23:43:59.970Z,983.95
2022-10-03T23:50:00.005Z,984.01
2022-10-03T23:55:59.929Z,983.95
